Time;durP1;ratioP1;P1;durP2;ratioP2;P2;SDS_P1;SDS_P2;PMS_P1;PMS_P2;Temp;Humidity;BMP_temperature;BMP_pressure;BME280_temperature;BME280_humidity;BME280_pressure;Samples;Min_cycle;Max_cycle;Signal;HPM_P1;HPM_P2
2022/07/14 00:00:17;;;;;;;3.10;1.48;;;26.60;65.90;;;;;;5013464;28;20041;-70
2022/07/14 00:02:42;;;;;;;3.67;1.40;;;26.60;65.90;;;;;;5014553;28;20029;-71
2022/07/14 00:05:08;;;;;;;3.42;1.35;;;26.50;65.90;;;;;;5014366;28;20037;-71
2022/07/14 00:07:34;;;;;;;2.92;1.50;;;26.50;65.90;;;;;;5014534;28;20018;-71
2022/07/14 00:09:59;;;;;;;2.45;1.30;;;26.50;65.90;;;;;;5014535;28;20530;-72
2022/07/14 00:12:25;;;;;;;3.50;1.33;;;26.50;66.00;;;;;;5014422;28;20041;-71
2022/07/14 00:14:51;;;;;;;2.88;1.30;;;26.50;66.00;;;;;;5014548;28;20114;-70
2022/07/14 00:17:16;;;;;;;4.50;1.70;;;26.50;66.00;;;;;;5014177;28;20030;-71
2022/07/14 00:19:42;;;;;;;3.05;1.50;;;26.40;65.90;;;;;;5013352;28;20034;-70
2022/07/14 00:22:07;;;;;;;4.32;1.30;;;26.40;66.00;;;;;;5014204;28;20028;-72
2022/07/14 00:24:33;;;;;;;5.30;1.58;;;26.40;66.10;;;;;;5014499;28;20502;-72
2022/07/14 00:26:58;;;;;;;5.10;1.52;;;26.40;66.10;;;;;;5014239;28;20026;-70
2022/07/14 00:29:24;;;;;;;6.13;1.70;;;26.40;66.20;;;;;;5014637;28;20029;-70
2022/07/14 00:31:49;;;;;;;4.90;1.60;;;26.40;66.20;;;;;;5013733;28;20057;-70
2022/07/14 00:34:15;;;;;;;5.43;2.03;;;26.40;66.30;;;;;;5013867;28;20049;-70
2022/07/14 00:36:41;;;;;;;3.58;1.58;;;26.30;66.20;;;;;;5014069;28;20034;-70
2022/07/14 00:39:06;;;;;;;3.70;1.52;;;26.30;66.30;;;;;;5013927;28;20522;-70
2022/07/14 00:41:32;;;;;;;4.88;1.70;;;26.30;66.30;;;;;;5013743;28;20507;-70
2022/07/14 00:43:57;;;;;;;3.22;1.45;;;26.30;66.30;;;;;;5013833;28;20038;-70
2022/07/14 00:46:23;;;;;;;4.22;1.40;;;26.30;66.30;;;;;;5012661;28;20026;-70
2022/07/14 00:48:49;;;;;;;3.03;1.25;;;26.30;66.40;;;;;;5013610;28;20025;-71
2022/07/14 00:51:14;;;;;;;3.25;1.60;;;26.20;66.40;;;;;;5013755;28;20033;-70
2022/07/14 00:53:40;;;;;;;3.33;1.30;;;26.20;66.40;;;;;;5012557;28;20022;-70
2022/07/14 00:56:06;;;;;;;4.07;1.50;;;26.20;66.40;;;;;;5013752;28;20037;-70
2022/07/14 00:58:33;;;;;;;5.80;1.70;;;26.20;66.40;;;;;;5013967;28;20068;-70
2022/07/14 01:00:58;;;;;;;2.85;1.40;;;26.20;66.50;;;;;;5013846;28;20037;-70
2022/07/14 01:03:24;;;;;;;3.15;1.55;;;26.20;66.60;;;;;;5013297;28;20017;-70
2022/07/14 01:05:50;;;;;;;3.55;1.38;;;26.20;66.60;;;;;;5013611;28;20032;-70
2022/07/14 01:08:15;;;;;;;3.60;1.27;;;26.20;66.60;;;;;;5013361;28;20014;-70
2022/07/14 01:10:41;;;;;;;2.17;1.38;;;26.20;66.70;;;;;;5013737;28;20451;-70
2022/07/14 01:13:07;;;;;;;4.97;1.48;;;26.10;66.70;;;;;;5013338;28;20030;-70
2022/07/14 01:15:32;;;;;;;3.67;1.45;;;26.10;66.70;;;;;;5013579;28;20101;-70
2022/07/14 01:17:59;;;;;;;3.55;1.30;;;26.10;66.60;;;;;;5013147;28;20037;-70
2022/07/14 01:20:24;;;;;;;2.70;1.58;;;26.10;66.70;;;;;;5013131;28;20076;-70
2022/07/14 01:22:51;;;;;;;4.53;1.88;;;26.10;66.80;;;;;;5013383;28;20053;-70
2022/07/14 01:25:18;;;;;;;4.18;1.50;;;26.10;66.80;;;;;;5013562;28;20022;-70
2022/07/14 01:27:44;;;;;;;2.83;1.48;;;26.10;66.90;;;;;;5013112;28;20022;-70
2022/07/14 01:30:10;;;;;;;4.88;1.70;;;26.00;66.80;;;;;;5013439;28;20041;-70
2022/07/14 01:32:36;;;;;;;4.03;1.85;;;26.00;66.90;;;;;;5012954;28;20479;-70
2022/07/14 01:35:06;;;;;;;3.88;1.50;;;26.00;66.90;;;;;;5013182;28;20641;-70
2022/07/14 01:37:32;;;;;;;5.95;2.42;;;26.00;66.90;;;;;;5013247;28;20113;-70
2022/07/14 01:39:59;;;;;;;4.53;1.98;;;26.00;66.90;;;;;;5013082;28;20060;-70
2022/07/14 01:42:26;;;;;;;3.03;1.20;;;26.00;66.90;;;;;;5013091;28;20423;-69
2022/07/14 01:44:52;;;;;;;4.18;1.70;;;26.00;66.90;;;;;;5012729;28;20039;-70
2022/07/14 01:47:18;;;;;;;2.72;1.58;;;26.00;67.00;;;;;;5013247;28;20152;-70
2022/07/14 01:49:43;;;;;;;4.18;1.38;;;26.00;67.70;;;;;;5013143;28;20066;-69
2022/07/14 01:52:09;;;;;;;4.78;2.00;;;25.90;67.00;;;;;;5013115;28;20097;-70
2022/07/14 01:54:34;;;;;;;4.68;2.25;;;25.90;67.00;;;;;;5013223;28;20033;-70
2022/07/14 01:57:00;;;;;;;3.22;1.73;;;25.90;67.10;;;;;;5013073;28;20488;-70
2022/07/14 01:59:26;;;;;;;5.20;1.90;;;25.90;67.10;;;;;;5012515;28;20048;-70
2022/07/14 02:01:51;;;;;;;2.95;1.75;;;25.90;67.20;;;;;;5013390;28;20029;-69
2022/07/14 02:04:20;;;;;;;5.93;2.17;;;25.90;67.20;;;;;;5012829;28;20034;-70
2022/07/14 02:06:54;;;;;;;3.92;1.65;;;25.80;67.20;;;;;;5013037;28;20080;-70
2022/07/14 02:09:20;;;;;;;3.63;1.55;;;25.80;67.30;;;;;;5012855;28;20026;-70
2022/07/14 02:14:32;;;;;;;4.50;2.05;;;25.80;67.40;;;;;;5012707;28;20541;-70
2022/07/14 02:16:58;;;;;;;5.28;2.03;;;25.80;67.30;;;;;;5012855;28;20022;-70
2022/07/14 02:19:24;;;;;;;9.77;2.30;;;25.80;67.50;;;;;;5012006;28;20030;-70
2022/07/14 02:21:52;;;;;;;3.13;1.80;;;25.80;67.50;;;;;;5012810;28;20032;-70
2022/07/14 02:24:18;;;;;;;4.57;1.83;;;25.70;67.40;;;;;;5012253;28;20077;-70
2022/07/14 02:26:44;;;;;;;7.75;2.00;;;25.80;67.50;;;;;;5012364;28;20452;-70
2022/07/14 02:29:10;;;;;;;3.47;1.58;;;25.70;67.40;;;;;;5012402;28;20037;-70
2022/07/14 02:31:36;;;;;;;5.38;2.20;;;25.70;67.50;;;;;;5012876;28;20025;-70
2022/07/14 02:34:02;;;;;;;5.22;1.80;;;25.70;67.50;;;;;;5012879;28;20030;-69
2022/07/14 02:36:28;;;;;;;4.95;2.42;;;25.70;67.50;;;;;;4995221;28;20028;-70
2022/07/14 02:38:55;;;;;;;5.05;1.92;;;25.70;67.60;;;;;;5012695;28;20062;-71
2022/07/14 02:41:21;;;;;;;5.60;2.20;;;25.70;67.70;;;;;;5013156;28;20104;-70
2022/07/14 02:43:46;;;;;;;5.93;2.35;;;25.70;67.70;;;;;;5015800;28;20487;-71
2022/07/14 02:46:12;;;;;;;3.53;1.50;;;25.70;67.70;;;;;;5016054;28;20030;-70
2022/07/14 02:48:38;;;;;;;6.22;2.22;;;25.70;67.70;;;;;;5016157;28;20030;-70
2022/07/14 02:51:06;;;;;;;4.95;2.15;;;25.60;67.70;;;;;;5016009;28;20030;-70
2022/07/14 02:53:34;;;;;;;5.28;2.03;;;25.60;67.70;;;;;;5015820;28;20018;-70
2022/07/14 02:56:00;;;;;;;4.60;2.00;;;25.60;67.70;;;;;;5015981;28;20018;-70
2022/07/14 02:58:26;;;;;;;6.05;2.40;;;25.60;67.80;;;;;;5015617;28;20089;-70
2022/07/14 03:00:52;;;;;;;6.28;2.35;;;25.60;67.80;;;;;;5015970;28;20113;-70
2022/07/14 03:03:17;;;;;;;5.35;2.83;;;25.60;67.70;;;;;;5015980;28;20093;-70
2022/07/14 03:05:43;;;;;;;4.05;2.20;;;25.60;67.80;;;;;;5015587;28;20022;-70
2022/07/14 03:08:09;;;;;;;5.30;1.88;;;25.50;67.70;;;;;;5015720;28;20013;-71
2022/07/14 03:10:35;;;;;;;5.10;2.25;;;25.60;67.90;;;;;;5015504;28;20442;-71
2022/07/14 03:13:01;;;;;;;4.80;2.08;;;25.50;67.90;;;;;;5015439;28;20033;-70
2022/07/14 03:15:26;;;;;;;4.80;2.03;;;25.50;68.00;;;;;;5015505;28;20034;-70
2022/07/14 03:17:52;;;;;;;3.00;1.60;;;25.50;67.90;;;;;;5015417;28;20052;-71
2022/07/14 03:20:18;;;;;;;4.28;1.83;;;25.50;68.00;;;;;;5015397;28;20095;-70
2022/07/14 03:22:43;;;;;;;4.32;1.60;;;25.40;68.00;;;;;;5015408;28;20056;-70
2022/07/14 03:25:09;;;;;;;6.30;1.95;;;25.40;68.00;;;;;;5015252;28;20054;-70
2022/07/14 03:27:35;;;;;;;4.90;2.10;;;25.50;68.10;;;;;;5015134;28;20029;-70
2022/07/14 03:30:05;;;;;;;4.25;1.80;;;25.40;68.00;;;;;;5015444;28;20029;-70
2022/07/14 03:32:30;;;;;;;5.50;1.83;;;25.40;68.20;;;;;;4997452;28;20018;-70
2022/07/14 03:34:57;;;;;;;4.45;1.83;;;25.40;68.20;;;;;;5015287;28;20049;-70
2022/07/14 03:37:23;;;;;;;4.20;2.30;;;25.40;68.20;;;;;;5014962;28;20475;-70
2022/07/14 03:39:48;;;;;;;5.47;2.08;;;25.30;68.00;;;;;;5015103;28;20041;-70
2022/07/14 03:42:15;;;;;;;4.28;2.10;;;25.30;68.20;;;;;;5014918;28;20062;-70
2022/07/14 03:44:41;;;;;;;6.13;1.88;;;25.30;68.30;;;;;;5014959;28;20104;-70
2022/07/14 03:47:07;;;;;;;4.95;1.98;;;25.30;68.30;;;;;;5014950;28;20459;-70
2022/07/14 03:49:32;;;;;;;5.93;2.08;;;25.30;68.30;;;;;;5015098;28;20069;-69
2022/07/14 03:51:58;;;;;;;7.53;1.83;;;25.30;68.40;;;;;;5014903;28;20026;-69
2022/07/14 03:54:23;;;;;;;5.68;1.90;;;25.20;68.40;;;;;;4996483;28;20030;-70
2022/07/14 03:56:49;;;;;;;5.50;2.20;;;25.30;68.50;;;;;;5014526;28;20026;-70
2022/07/14 03:59:14;;;;;;;4.78;1.70;;;25.20;68.50;;;;;;5014823;28;20396;-70
2022/07/14 04:01:40;;;;;;;3.80;1.75;;;25.20;68.50;;;;;;5015081;28;20088;-70
2022/07/14 04:04:06;;;;;;;3.50;1.55;;;25.20;68.60;;;;;;4997408;28;20054;-69
2022/07/14 04:06:32;;;;;;;4.50;1.92;;;25.20;68.60;;;;;;5014289;28;20018;-70
2022/07/14 04:08:58;;;;;;;5.60;1.83;;;25.20;68.60;;;;;;5014767;28;20033;-70
2022/07/14 04:11:24;;;;;;;4.65;1.45;;;25.20;68.70;;;;;;5014060;28;20502;-70
2022/07/14 04:13:49;;;;;;;3.10;1.23;;;25.10;68.70;;;;;;5014556;28;20026;-70
2022/07/14 04:16:15;;;;;;;7.05;2.45;;;25.10;68.70;;;;;;5014333;28;20385;-70
2022/07/14 04:18:40;;;;;;;5.03;1.55;;;25.10;68.70;;;;;;5014483;28;20030;-70
2022/07/14 04:21:08;;;;;;;6.45;1.88;;;25.10;68.80;;;;;;5014414;28;20041;-70
2022/07/14 04:23:34;;;;;;;4.88;1.52;;;25.10;68.90;;;;;;5014068;28;20030;-70
2022/07/14 04:26:01;;;;;;;4.13;1.50;;;25.10;68.90;;;;;;5014124;28;20037;-70
2022/07/14 04:28:27;;;;;;;6.53;1.90;;;25.10;69.00;;;;;;5014294;28;20088;-70
2022/07/14 04:30:53;;;;;;;4.18;1.45;;;25.10;69.00;;;;;;5014481;28;20460;-70
2022/07/14 04:33:20;;;;;;;6.70;1.60;;;25.00;69.00;;;;;;5014242;28;20033;-70
2022/07/14 04:35:45;;;;;;;5.10;2.05;;;25.00;69.10;;;;;;5014220;28;20097;-70
2022/07/14 04:38:11;;;;;;;9.48;2.67;;;25.00;69.10;;;;;;5014090;28;20026;-70
2022/07/14 04:40:38;;;;;;;3.15;1.58;;;25.00;69.10;;;;;;5013703;28;20073;-70
2022/07/14 04:43:03;;;;;;;3.72;2.05;;;25.00;69.20;;;;;;4996167;28;20038;-70
2022/07/14 04:45:29;;;;;;;4.78;2.08;;;25.00;69.30;;;;;;5014091;28;20033;-70
2022/07/14 04:47:55;;;;;;;4.53;1.67;;;25.00;69.30;;;;;;5013950;28;20387;-70
2022/07/14 04:53:04;;;;;;;4.78;1.98;;;25.00;69.50;;;;;;5014034;28;20538;-70
2022/07/14 04:55:30;;;;;;;4.38;1.83;;;25.00;69.40;;;;;;5013613;28;20030;-69
2022/07/14 04:57:55;;;;;;;6.50;1.75;;;25.00;69.50;;;;;;5013547;28;20379;-70
2022/07/14 05:00:21;;;;;;;3.30;1.55;;;24.90;69.60;;;;;;5012905;28;20507;-70
2022/07/14 05:02:46;;;;;;;3.13;1.15;;;25.00;69.70;;;;;;5013335;28;20115;-70
2022/07/14 05:05:12;;;;;;;2.80;1.27;;;25.00;69.70;;;;;;5013184;28;20033;-69
2022/07/14 05:07:38;;;;;;;8.52;2.22;;;24.90;69.70;;;;;;4994172;28;20022;-70
2022/07/14 05:10:05;;;;;;;5.75;2.08;;;25.00;69.70;;;;;;5012149;28;20475;-70
2022/07/14 05:12:31;;;;;;;5.40;2.00;;;24.90;69.70;;;;;;5013652;28;20053;-70
2022/07/14 05:14:56;;;;;;;9.30;2.13;;;24.90;69.80;;;;;;5013663;28;20146;-70
2022/07/14 05:17:22;;;;;;;5.15;1.65;;;24.90;69.80;;;;;;5013600;28;20019;-70
2022/07/14 05:19:49;;;;;;;4.28;1.48;;;24.90;69.70;;;;;;5013371;28;20125;-71
2022/07/14 05:22:15;;;;;;;3.67;1.27;;;24.90;69.80;;;;;;5013515;28;20022;-70
2022/07/14 05:24:41;;;;;;;6.10;1.90;;;24.90;69.80;;;;;;5012934;28;20463;-70
2022/07/14 05:27:06;;;;;;;5.28;1.45;;;24.90;69.80;;;;;;5013747;28;20026;-70
2022/07/14 05:29:32;;;;;;;8.73;2.20;;;24.90;69.90;;;;;;5013331;28;20471;-70
2022/07/14 05:31:58;;;;;;;5.65;2.10;;;24.90;69.80;;;;;;5013384;28;20518;-70
2022/07/14 05:34:23;;;;;;;4.13;1.55;;;24.90;69.70;;;;;;5013484;28;20105;-70
2022/07/14 05:36:49;;;;;;;6.35;1.77;;;24.80;69.80;;;;;;5011480;28;20053;-70
2022/07/14 05:39:14;;;;;;;6.82;2.10;;;24.90;69.90;;;;;;5013347;28;20041;-70
2022/07/14 05:41:41;;;;;;;7.38;2.38;;;24.80;69.90;;;;;;5013171;28;20030;-70
2022/07/14 05:44:07;;;;;;;5.63;2.13;;;24.80;69.80;;;;;;5012909;28;20034;-70
2022/07/14 05:46:32;;;;;;;3.33;1.20;;;24.80;70.00;;;;;;5013278;28;20021;-70
2022/07/14 05:48:58;;;;;;;5.13;1.48;;;24.80;70.00;;;;;;5013193;28;20100;-70
2022/07/14 05:51:23;;;;;;;5.43;1.70;;;24.80;70.20;;;;;;5012977;28;20078;-70
2022/07/14 05:53:50;;;;;;;5.28;1.65;;;24.80;70.20;;;;;;5012982;28;20080;-70
2022/07/14 05:56:19;;;;;;;4.38;1.38;;;24.80;70.20;;;;;;5013216;28;20034;-70
2022/07/14 05:58:45;;;;;;;5.25;1.55;;;24.80;70.30;;;;;;5012642;28;20026;-70
2022/07/14 06:01:11;;;;;;;6.47;1.75;;;24.80;70.30;;;;;;5013268;28;20034;-71
2022/07/14 06:03:37;;;;;;;6.07;1.67;;;24.80;70.20;;;;;;5013053;28;20093;-70
2022/07/14 06:06:08;;;;;;;5.50;1.90;;;24.80;70.30;;;;;;5012726;28;20108;-70
2022/07/14 06:08:34;;;;;;;9.18;1.67;;;24.80;70.20;;;;;;5012986;28;20030;-70
2022/07/14 06:11:00;;;;;;;3.60;1.60;;;24.80;70.30;;;;;;5013325;28;20018;-71
2022/07/14 06:13:27;;;;;;;5.28;1.90;;;24.80;70.40;;;;;;5012878;28;20104;-70
2022/07/14 06:15:55;;;;;;;5.07;1.50;;;24.80;70.50;;;;;;5012611;28;20022;-70
2022/07/14 06:18:20;;;;;;;7.95;1.80;;;24.80;70.50;;;;;;5016644;28;20080;-70
2022/07/14 06:20:47;;;;;;;7.53;1.63;;;24.80;70.40;;;;;;5016146;28;20351;-70
2022/07/14 06:23:14;;;;;;;2.90;1.02;;;24.80;70.50;;;;;;5016653;28;20064;-71
2022/07/14 06:25:39;;;;;;;10.07;2.03;;;24.80;70.70;;;;;;5015393;28;20526;-70
2022/07/14 06:28:06;;;;;;;5.75;1.95;;;24.80;70.60;;;;;;5016366;28;20030;-70
2022/07/14 06:30:32;;;;;;;7.88;1.92;;;24.80;70.80;;;;;;5016498;28;20053;-70
2022/07/14 06:32:58;;;;;;;6.68;2.00;;;24.80;70.70;;;;;;5016660;28;20065;-70
2022/07/14 06:35:24;;;;;;;7.70;1.95;;;24.80;70.80;;;;;;5016002;28;20044;-70
2022/07/14 06:37:53;;;;;;;4.75;1.60;;;24.80;70.80;;;;;;5016416;28;20038;-70
2022/07/14 06:40:19;;;;;;;5.90;1.00;;;24.80;70.90;;;;;;5016474;28;20040;-70
2022/07/14 06:42:45;;;;;;;9.50;1.98;;;24.80;70.90;;;;;;5016248;28;20034;-71
2022/07/14 06:45:12;;;;;;;7.82;1.90;;;24.80;70.90;;;;;;5016106;28;20030;-71
2022/07/14 06:47:37;;;;;;;7.25;2.17;;;24.80;70.90;;;;;;5016151;28;20018;-72
2022/07/14 06:50:04;;;;;;;6.50;1.88;;;24.90;71.10;;;;;;5015696;28;20036;-71
2022/07/14 06:52:30;;;;;;;6.63;2.10;;;24.90;71.00;;;;;;5016241;28;20020;-71
2022/07/14 06:54:58;;;;;;;8.48;2.25;;;24.90;71.20;;;;;;5016005;28;20108;-72
2022/07/14 06:57:23;;;;;;;10.20;2.45;;;24.90;70.90;;;;;;5016001;28;20022;-71
2022/07/14 06:59:49;;;;;;;7.32;2.22;;;24.90;70.90;;;;;;5015608;28;20056;-72
2022/07/14 07:02:14;;;;;;;9.20;2.60;;;24.90;70.70;;;;;;5015994;28;20379;-70
2022/07/14 07:04:40;;;;;;;10.88;2.45;;;24.90;70.60;;;;;;5015295;28;20475;-70
2022/07/14 07:07:06;;;;;;;5.82;2.35;;;24.90;70.40;;;;;;5015746;28;20020;-70
2022/07/14 07:09:32;;;;;;;6.22;2.10;;;25.00;70.60;;;;;;5015946;28;20030;-71
2022/07/14 07:11:57;;;;;;;9.00;1.90;;;25.00;70.60;;;;;;5015744;28;20089;-72
2022/07/14 07:14:23;;;;;;;7.97;2.25;;;25.00;70.80;;;;;;5015607;28;20034;-71
2022/07/14 07:16:50;;;;;;;7.00;1.75;;;25.00;70.70;;;;;;5015544;28;20033;-72
2022/07/14 07:19:16;;;;;;;8.55;2.17;;;25.10;70.80;;;;;;5015327;28;20111;-70
2022/07/14 07:21:42;;;;;;;7.10;2.10;;;25.10;70.60;;;;;;5015548;28;20049;-70
2022/07/14 07:24:09;;;;;;;7.00;1.85;;;25.10;70.70;;;;;;5015505;28;20041;-70
2022/07/14 07:26:37;;;;;;;9.18;2.33;;;25.10;70.70;;;;;;5015131;28;20098;-70
2022/07/14 07:29:03;;;;;;;8.60;2.20;;;25.20;70.40;;;;;;5015285;28;20251;-72
2022/07/14 07:31:29;;;;;;;7.30;2.00;;;25.20;70.30;;;;;;5015455;28;20026;-72
2022/07/14 07:33:55;;;;;;;7.57;1.85;;;25.20;69.70;;;;;;5014939;28;20060;-71
2022/07/14 07:36:21;;;;;;;9.73;1.60;;;25.20;69.20;;;;;;5015274;28;20387;-70
2022/07/14 07:38:47;;;;;;;8.82;1.98;;;25.30;68.70;;;;;;5015004;28;20540;-71
2022/07/14 07:41:12;;;;;;;6.35;1.60;;;25.30;68.60;;;;;;5014796;28;20116;-70
2022/07/14 07:43:38;;;;;;;4.28;1.65;;;25.30;68.30;;;;;;5015275;28;20128;-70
2022/07/14 07:46:05;;;;;;;5.85;1.95;;;25.30;68.10;;;;;;5014998;28;20040;-70
2022/07/14 07:48:32;;;;;;;7.75;1.65;;;25.30;67.90;;;;;;5014747;28;20017;-70
2022/07/14 07:50:58;;;;;;;5.82;1.83;;;25.40;67.80;;;;;;5014860;28;20084;-70
2022/07/14 07:53:24;;;;;;;6.28;1.50;;;25.40;68.10;;;;;;5014971;28;20468;-70
2022/07/14 07:55:49;;;;;;;7.35;1.70;;;25.50;67.40;;;;;;5014836;28;20072;-70
2022/07/14 07:58:15;;;;;;;7.28;1.80;;;25.40;67.60;;;;;;5015289;28;20029;-71
2022/07/14 08:00:41;;;;;;;4.90;1.55;;;25.40;67.70;;;;;;5014912;28;20033;-71
2022/07/14 08:03:06;;;;;;;6.95;1.58;;;25.50;67.50;;;;;;5014619;28;20018;-72
2022/07/14 08:05:32;;;;;;;7.05;1.42;;;25.50;67.60;;;;;;5014602;28;20490;-71
2022/07/14 08:07:59;;;;;;;6.10;1.60;;;25.50;67.40;;;;;;5014621;28;20490;-72
2022/07/14 08:10:25;;;;;;;6.20;1.75;;;25.50;67.70;;;;;;5014613;28;20038;-72
2022/07/14 08:12:50;;;;;;;5.13;1.38;;;25.50;67.80;;;;;;5014361;28;20060;-71
2022/07/14 08:15:18;;;;;;;6.22;1.80;;;25.60;68.00;;;;;;5014553;28;20476;-71
2022/07/14 08:17:44;;;;;;;4.38;1.35;;;25.60;68.10;;;;;;5013974;28;20093;-71
2022/07/14 08:20:10;;;;;;;5.38;1.75;;;25.60;68.30;;;;;;5014552;28;20120;-70
2022/07/14 08:22:37;;;;;;;6.80;1.80;;;25.60;69.00;;;;;;4996681;28;20360;-70
2022/07/14 08:25:04;;;;;;;5.20;1.42;;;25.60;68.10;;;;;;5014235;28;20032;-70
2022/07/14 08:27:30;;;;;;;6.18;1.70;;;25.70;68.20;;;;;;5014366;28;20029;-70
2022/07/14 08:29:56;;;;;;;5.25;2.00;;;25.70;68.40;;;;;;5014251;28;20034;-70
2022/07/14 08:32:38;;;;;;;7.65;2.08;;;25.70;69.00;;;;;;5013880;28;20416;-70
2022/07/14 08:35:05;;;;;;;5.88;1.63;;;25.70;68.10;;;;;;5013904;28;20048;-71
2022/07/14 08:37:31;;;;;;;5.72;2.13;;;25.70;68.10;;;;;;5014271;28;20030;-72
2022/07/14 08:39:57;;;;;;;7.05;1.98;;;25.80;68.40;;;;;;5013255;28;20364;-70
2022/07/14 08:42:22;;;;;;;4.22;1.88;;;25.80;68.00;;;;;;5014187;28;20034;-70
2022/07/14 08:44:49;;;;;;;5.82;1.60;;;25.80;67.60;;;;;;5014042;28;20064;-70
2022/07/14 08:47:15;;;;;;;5.70;1.73;;;25.80;67.80;;;;;;5013606;28;20030;-70
2022/07/14 08:49:43;;;;;;;7.30;1.75;;;25.80;67.60;;;;;;5013786;28;20482;-70
2022/07/14 08:52:10;;;;;;;6.35;1.90;;;25.80;67.50;;;;;;5013861;28;20038;-70
2022/07/14 08:54:36;;;;;;;4.78;1.65;;;25.80;67.40;;;;;;5013820;28;20120;-70
2022/07/14 08:57:02;;;;;;;7.93;2.33;;;25.80;66.90;;;;;;5013724;28;20048;-70
2022/07/14 08:59:28;;;;;;;5.03;1.42;;;25.90;66.80;;;;;;5012540;28;20494;-70
2022/07/14 09:01:54;;;;;;;4.78;1.33;;;25.90;66.90;;;;;;5013474;28;20038;-70
2022/07/14 09:04:20;;;;;;;5.80;1.45;;;25.90;66.70;;;;;;5013547;28;20065;-70
2022/07/14 09:06:54;;;;;;;8.35;1.80;;;25.90;66.40;;;;;;5013555;28;20030;-70
2022/07/14 09:09:27;;;;;;;7.47;1.75;;;25.90;66.10;;;;;;5013774;28;20022;-70
2022/07/14 09:11:58;;;;;;;8.20;1.60;;;25.90;66.10;;;;;;5013465;28;20042;-70
2022/07/14 09:14:25;;;;;;;5.25;1.42;;;25.90;66.10;;;;;;5013379;28;20034;-70
2022/07/14 09:16:52;;;;;;;4.15;1.02;;;25.90;65.90;;;;;;5013601;28;20068;-70
2022/07/14 09:19:19;;;;;;;4.57;1.38;;;25.90;66.20;;;;;;5013822;28;20455;-71
2022/07/14 09:21:52;;;;;;;3.80;1.25;;;25.90;66.40;;;;;;5013854;28;20030;-71
2022/07/14 09:24:20;;;;;;;4.60;1.30;;;26.00;66.70;;;;;;5013550;28;20029;-70
2022/07/14 09:26:49;;;;;;;4.40;0.95;;;26.00;66.30;;;;;;5013547;28;20076;-70
2022/07/14 09:29:17;;;;;;;4.10;1.13;;;26.00;66.40;;;;;;5012933;28;20435;-71
2022/07/14 09:31:44;;;;;;;5.43;1.70;;;26.00;66.50;;;;;;5013470;28;20060;-70
2022/07/14 09:34:22;;;;;;;4.70;1.00;;;26.00;66.80;;;;;;5013392;28;20026;-70
2022/07/14 09:36:49;;;;;;;4.32;1.63;;;26.00;67.10;;;;;;5013284;28;20030;-70
2022/07/14 09:39:15;;;;;;;3.80;1.27;;;26.00;67.30;;;;;;5013149;28;20383;-72
2022/07/14 09:41:53;;;;;;;4.32;1.35;;;26.00;67.50;;;;;;5013727;28;20038;-71
2022/07/14 09:44:19;;;;;;;3.65;1.30;;;26.00;67.10;;;;;;5012730;28;20480;-70
2022/07/14 09:46:48;;;;;;;3.03;1.00;;;26.00;66.90;;;;;;5013355;28;20029;-70
2022/07/14 09:49:15;;;;;;;3.53;1.17;;;26.00;66.90;;;;;;5013197;28;20041;-70
2022/07/14 09:51:58;;;;;;;3.30;1.05;;;26.00;67.00;;;;;;5016285;28;20017;-70
2022/07/14 09:54:50;;;;;;;2.72;0.85;;;26.00;66.90;;;;;;5018314;28;20386;-72
2022/07/14 09:57:24;;;;;;;4.13;0.98;;;26.00;66.40;;;;;;5014144;28;20023;-70
2022/07/14 09:59:55;;;;;;;4.90;1.02;;;26.00;65.40;;;;;;5016771;28;20056;-71
2022/07/14 10:02:29;;;;;;;2.80;0.77;;;26.00;65.30;;;;;;5017111;28;20018;-70
2022/07/14 10:05:01;;;;;;;3.30;1.10;;;26.00;65.60;;;;;;5016567;28;20029;-71
2022/07/14 10:07:33;;;;;;;3.90;1.15;;;26.00;65.80;;;;;;5008829;28;20380;-72
2022/07/14 10:10:04;;;;;;;3.53;1.17;;;26.00;66.00;;;;;;5016698;28;20026;-72
2022/07/14 10:12:30;;;;;;;4.22;1.08;;;26.00;66.10;;;;;;5016826;28;20040;-70
2022/07/14 10:15:00;;;;;;;2.00;0.82;;;26.00;66.10;;;;;;5016772;28;20030;-70
2022/07/14 10:17:28;;;;;;;3.00;1.00;;;26.00;65.90;;;;;;5016818;28;20037;-71
2022/07/14 10:19:55;;;;;;;4.18;1.27;;;26.00;65.10;;;;;;5016668;28;20041;-70
2022/07/14 10:22:20;;;;;;;2.58;0.70;;;26.00;65.10;;;;;;5016823;28;20029;-70
2022/07/14 10:24:49;;;;;;;3.78;0.93;;;26.00;64.90;;;;;;4998759;28;20030;-70
2022/07/14 10:27:18;;;;;;;3.13;0.98;;;26.00;64.60;;;;;;5016232;28;20022;-70
2022/07/14 10:29:48;;;;;;;1.98;0.77;;;26.00;64.30;;;;;;5016439;28;20056;-71
2022/07/14 10:32:38;;;;;;;3.85;1.02;;;26.00;63.50;;;;;;5016747;28;20032;-70
2022/07/14 10:35:12;;;;;;;2.10;0.85;;;26.00;64.10;;;;;;5016487;28;20054;-70
2022/07/14 10:38:11;;;;;;;3.33;0.93;;;26.00;64.30;;;;;;5016226;28;20093;-70
2022/07/14 10:41:13;;;;;;;3.10;0.70;;;26.00;64.50;;;;;;5016153;28;20038;-70
2022/07/14 10:44:06;;;;;;;3.95;1.10;;;26.00;64.30;;;;;;5016060;28;20088;-70
2022/07/14 10:46:42;;;;;;;;;;;26.00;64.10;;;;;;5016354;28;20021;-70
2022/07/14 10:49:12;;;;;;;1.88;0.52;;;26.10;62.00;;;;;;5016223;28;19906;-70
2022/07/14 10:51:51;;;;;;;2.80;1.10;;;26.10;64.10;;;;;;5016027;28;20025;-70
2022/07/14 10:54:24;;;;;;;2.97;1.08;;;26.00;64.10;;;;;;5016150;28;20029;-70
2022/07/14 10:57:06;;;;;;;2.42;0.90;;;26.10;64.50;;;;;;5015582;28;20030;-70
2022/07/14 10:59:32;;;;;;;;;;;26.10;64.20;;;;;;5016493;28;20030;-70
2022/07/14 11:02:13;;;;;;;3.03;1.00;;;26.10;62.00;;;;;;5015203;28;19905;-70
2022/07/14 11:05:08;;;;;;;2.50;0.70;;;26.10;63.60;;;;;;5016064;28;20033;-70
2022/07/14 11:07:47;;;;;;;3.22;0.90;;;26.10;63.50;;;;;;5016097;28;20081;-70
2022/07/14 11:10:18;;;;;;;1.88;0.75;;;26.10;62.90;;;;;;5015766;28;20497;-71
2022/07/14 11:12:59;;;;;;;3.38;0.70;;;26.10;63.60;;;;;;4998480;28;20124;-71
2022/07/14 11:15:51;;;;;;;3.22;0.85;;;26.10;63.20;;;;;;5015704;28;20100;-70
2022/07/14 11:18:26;;;;;;;1.98;0.70;;;26.10;63.20;;;;;;5015611;28;20026;-71
2022/07/14 11:21:00;;;;;;;2.55;0.80;;;26.20;63.30;;;;;;5015450;28;20042;-71
2022/07/14 11:23:37;;;;;;;2.20;0.82;;;26.10;63.70;;;;;;5015666;28;20105;-71
2022/07/14 11:26:27;;;;;;;1.80;0.50;;;26.20;63.50;;;;;;5015032;28;20376;-70
2022/07/14 11:28:53;;;;;;;1.40;0.60;;;26.20;62.90;;;;;;5015445;28;20442;-72
2022/07/14 11:31:20;;;;;;;3.80;0.60;;;26.20;62.70;;;;;;5015225;28;20531;-70
2022/07/14 11:36:33;;;;;;;2.35;0.85;;;26.20;62.70;;;;;;5015338;28;20510;-70
2022/07/14 11:39:17;;;;;;;3.10;1.08;;;26.20;63.00;;;;;;5015065;28;20018;-71
2022/07/14 11:41:59;;;;;;;3.78;0.60;;;26.20;63.40;;;;;;5015026;28;20480;-71
2022/07/14 11:44:35;;;;;;;2.75;0.77;;;26.20;63.70;;;;;;5014979;28;20041;-72
2022/07/14 11:47:02;;;;;;;2.60;0.73;;;26.20;63.40;;;;;;5014841;28;20376;-71
2022/07/14 11:49:29;;;;;;;1.92;0.70;;;26.20;63.40;;;;;;5007252;28;20018;-71
2022/07/14 11:51:56;;;;;;;2.58;0.65;;;26.20;63.60;;;;;;5014994;28;20066;-72
2022/07/14 11:54:22;;;;;;;2.47;0.70;;;26.20;63.50;;;;;;5014556;28;20017;-72
2022/07/14 11:56:48;;;;;;;2.20;0.75;;;26.20;63.80;;;;;;5014775;28;20083;-72
2022/07/14 11:59:18;;;;;;;1.67;0.40;;;26.20;63.50;;;;;;5014837;28;20084;-70
2022/07/14 12:01:44;;;;;;;2.08;0.80;;;26.30;63.50;;;;;;4997152;28;20033;-72
2022/07/14 12:04:16;;;;;;;6.43;0.80;;;26.30;63.50;;;;;;5014683;28;20029;-71
2022/07/14 12:06:44;;;;;;;1.17;0.70;;;26.30;63.40;;;;;;5014743;28;20030;-71
2022/07/14 12:09:10;;;;;;;1.42;0.70;;;26.30;63.90;;;;;;5014315;28;20102;-72
2022/07/14 12:11:36;;;;;;;2.88;0.82;;;26.30;64.00;;;;;;5014690;28;20029;-71
2022/07/14 12:14:03;;;;;;;2.15;0.95;;;26.30;63.90;;;;;;5013488;28;20391;-72
2022/07/14 12:16:41;;;;;;;2.75;0.52;;;26.30;63.60;;;;;;5014397;28;20554;-71
2022/07/14 12:19:07;;;;;;;2.55;0.77;;;26.30;64.00;;;;;;5014351;28;20113;-71
2022/07/14 12:21:34;;;;;;;3.13;0.77;;;26.30;64.50;;;;;;5014671;28;20104;-70
2022/07/14 12:24:01;;;;;;;2.58;0.80;;;26.30;64.00;;;;;;5014131;28;20022;-70
2022/07/14 12:26:27;;;;;;;1.85;0.70;;;26.30;63.70;;;;;;5014196;28;20073;-71
2022/07/14 12:28:59;;;;;;;2.03;0.63;;;26.40;64.20;;;;;;5014255;28;20032;-71
2022/07/14 12:31:24;;;;;;;1.85;0.52;;;26.40;64.50;;;;;;5014309;28;20104;-71
2022/07/14 12:33:52;;;;;;;3.55;0.63;;;26.40;63.60;;;;;;5014048;28;20113;-71
2022/07/14 12:36:31;;;;;;;2.08;0.57;;;26.40;63.40;;;;;;5070424;28;20914;-67
2022/07/14 12:38:58;;;;;;;1.27;0.43;;;26.40;63.70;;;;;;5069993;28;20021;-64
2022/07/14 12:41:25;;;;;;;2.47;0.73;;;26.40;63.90;;;;;;5070445;28;20056;-68
2022/07/14 12:43:52;;;;;;;2.13;0.70;;;26.40;63.60;;;;;;5070285;28;20021;-68
2022/07/14 12:46:20;;;;;;;3.10;0.88;;;26.40;63.10;;;;;;5068904;28;20016;-65
2022/07/14 12:48:49;;;;;;;2.03;0.47;;;26.40;63.40;;;;;;5070105;28;20048;-65
2022/07/14 12:51:18;;;;;;;1.73;0.98;;;26.40;63.60;;;;;;5070156;28;20025;-68
2022/07/14 12:54:05;;;;;;;2.38;0.70;;;26.50;63.70;;;;;;5069930;28;20056;-68
2022/07/14 12:56:34;;;;;;;3.47;0.70;;;26.40;63.50;;;;;;5070056;28;20481;-68
2022/07/14 12:59:02;;;;;;;1.02;0.68;;;26.50;63.10;;;;;;5069945;28;20028;-65